sensor_id;sensor_type;location;lat;lon;timestamp;P1;durP1;ratioP1;P2;durP2;ratioP2
67762;SDS011;54566;52.022;5.582;2023-11-21T00:00:29;42.30;;;15.98;;
67762;SDS011;54566;52.022;5.582;2023-11-21T00:02:57;50.60;;;16.65;;
67762;SDS011;54566;52.022;5.582;2023-11-21T00:05:23;40.28;;;15.80;;
67762;SDS011;54566;52.022;5.582;2023-11-21T00:07:49;41.63;;;15.27;;
67762;SDS011;54566;52.022;5.582;2023-11-21T00:10:16;45.22;;;15.30;;
67762;SDS011;54566;52.022;5.582;2023-11-21T00:12:42;44.13;;;14.80;;
67762;SDS011;54566;52.022;5.582;2023-11-21T00:15:08;37.47;;;15.65;;
67762;SDS011;54566;52.022;5.582;2023-11-21T00:17:36;47.42;;;15.43;;
67762;SDS011;54566;52.022;5.582;2023-11-21T00:20:02;43.50;;;15.90;;
67762;SDS011;54566;52.022;5.582;2023-11-21T00:22:31;36.17;;;14.57;;
67762;SDS011;54566;52.022;5.582;2023-11-21T00:24:57;36.40;;;15.45;;
67762;SDS011;54566;52.022;5.582;2023-11-21T00:27:23;47.63;;;15.18;;
67762;SDS011;54566;52.022;5.582;2023-11-21T00:29:49;54.92;;;16.75;;
67762;SDS011;54566;52.022;5.582;2023-11-21T00:32:15;46.25;;;15.30;;
67762;SDS011;54566;52.022;5.582;2023-11-21T00:34:41;40.63;;;15.00;;
67762;SDS011;54566;52.022;5.582;2023-11-21T00:37:08;45.08;;;15.02;;
67762;SDS011;54566;52.022;5.582;2023-11-21T00:39:34;37.95;;;14.32;;
67762;SDS011;54566;52.022;5.582;2023-11-21T00:42:00;36.92;;;13.43;;
67762;SDS011;54566;52.022;5.582;2023-11-21T00:44:26;32.50;;;13.40;;
67762;SDS011;54566;52.022;5.582;2023-11-21T00:49:26;37.05;;;12.80;;
67762;SDS011;54566;52.022;5.582;2023-11-21T00:51:53;40.15;;;13.27;;
67762;SDS011;54566;52.022;5.582;2023-11-21T00:54:19;34.85;;;13.73;;
67762;SDS011;54566;52.022;5.582;2023-11-21T00:56:45;39.80;;;14.00;;
67762;SDS011;54566;52.022;5.582;2023-11-21T00:59:13;33.47;;;13.75;;
67762;SDS011;54566;52.022;5.582;2023-11-21T01:01:39;50.35;;;16.77;;
67762;SDS011;54566;52.022;5.582;2023-11-21T01:04:05;45.05;;;16.05;;
67762;SDS011;54566;52.022;5.582;2023-11-21T01:06:34;39.47;;;13.75;;
67762;SDS011;54566;52.022;5.582;2023-11-21T01:09:00;34.30;;;14.10;;
67762;SDS011;54566;52.022;5.582;2023-11-21T01:11:26;40.83;;;15.43;;
67762;SDS011;54566;52.022;5.582;2023-11-21T01:13:52;37.17;;;14.82;;
67762;SDS011;54566;52.022;5.582;2023-11-21T01:16:18;44.05;;;14.88;;
67762;SDS011;54566;52.022;5.582;2023-11-21T01:18:44;42.63;;;14.30;;
67762;SDS011;54566;52.022;5.582;2023-11-21T01:21:13;43.67;;;15.38;;
67762;SDS011;54566;52.022;5.582;2023-11-21T01:23:39;39.15;;;14.68;;
67762;SDS011;54566;52.022;5.582;2023-11-21T01:26:05;34.65;;;13.25;;
67762;SDS011;54566;52.022;5.582;2023-11-21T01:28:34;41.00;;;14.05;;
67762;SDS011;54566;52.022;5.582;2023-11-21T01:31:00;35.47;;;13.80;;
67762;SDS011;54566;52.022;5.582;2023-11-21T01:33:26;32.75;;;13.77;;
67762;SDS011;54566;52.022;5.582;2023-11-21T01:35:52;33.17;;;14.40;;
67762;SDS011;54566;52.022;5.582;2023-11-21T01:38:20;34.67;;;13.88;;
67762;SDS011;54566;52.022;5.582;2023-11-21T01:40:46;31.98;;;12.55;;
67762;SDS011;54566;52.022;5.582;2023-11-21T01:43:12;33.80;;;13.18;;
67762;SDS011;54566;52.022;5.582;2023-11-21T01:45:38;37.30;;;12.13;;
67762;SDS011;54566;52.022;5.582;2023-11-21T01:48:06;37.78;;;12.48;;
67762;SDS011;54566;52.022;5.582;2023-11-21T01:50:32;36.63;;;13.38;;
67762;SDS011;54566;52.022;5.582;2023-11-21T01:52:59;32.13;;;12.75;;
67762;SDS011;54566;52.022;5.582;2023-11-21T01:55:26;37.00;;;13.25;;
67762;SDS011;54566;52.022;5.582;2023-11-21T02:00:21;30.73;;;11.55;;
67762;SDS011;54566;52.022;5.582;2023-11-21T02:02:48;32.10;;;12.10;;
67762;SDS011;54566;52.022;5.582;2023-11-21T02:05:15;32.30;;;12.45;;
67762;SDS011;54566;52.022;5.582;2023-11-21T02:07:46;34.63;;;12.00;;
67762;SDS011;54566;52.022;5.582;2023-11-21T02:10:17;38.45;;;12.05;;
67762;SDS011;54566;52.022;5.582;2023-11-21T02:12:47;37.95;;;11.93;;
67762;SDS011;54566;52.022;5.582;2023-11-21T02:15:15;23.10;;;10.75;;
67762;SDS011;54566;52.022;5.582;2023-11-21T02:17:51;23.33;;;9.70;;
67762;SDS011;54566;52.022;5.582;2023-11-21T02:20:19;34.05;;;10.57;;
67762;SDS011;54566;52.022;5.582;2023-11-21T02:22:51;22.40;;;10.23;;
67762;SDS011;54566;52.022;5.582;2023-11-21T02:25:29;23.23;;;10.33;;
67762;SDS011;54566;52.022;5.582;2023-11-21T02:27:56;27.20;;;10.93;;
67762;SDS011;54566;52.022;5.582;2023-11-21T02:30:24;24.83;;;10.52;;
67762;SDS011;54566;52.022;5.582;2023-11-21T02:32:51;22.95;;;10.68;;
67762;SDS011;54566;52.022;5.582;2023-11-21T02:35:21;22.05;;;10.15;;
67762;SDS011;54566;52.022;5.582;2023-11-21T02:37:48;19.30;;;9.82;;
67762;SDS011;54566;52.022;5.582;2023-11-21T02:40:14;28.75;;;11.60;;
67762;SDS011;54566;52.022;5.582;2023-11-21T02:42:45;28.65;;;10.43;;
67762;SDS011;54566;52.022;5.582;2023-11-21T02:45:12;22.88;;;10.15;;
67762;SDS011;54566;52.022;5.582;2023-11-21T02:47:40;20.98;;;9.95;;
67762;SDS011;54566;52.022;5.582;2023-11-21T02:50:06;23.58;;;10.52;;
67762;SDS011;54566;52.022;5.582;2023-11-21T02:52:34;20.98;;;11.07;;
67762;SDS011;54566;52.022;5.582;2023-11-21T02:55:00;25.38;;;10.27;;
67762;SDS011;54566;52.022;5.582;2023-11-21T02:57:26;24.58;;;10.23;;
67762;SDS011;54566;52.022;5.582;2023-11-21T02:59:53;21.92;;;10.35;;
67762;SDS011;54566;52.022;5.582;2023-11-21T03:02:19;25.67;;;10.90;;
67762;SDS011;54566;52.022;5.582;2023-11-21T03:04:45;28.20;;;11.70;;
67762;SDS011;54566;52.022;5.582;2023-11-21T03:07:14;23.98;;;11.02;;
67762;SDS011;54566;52.022;5.582;2023-11-21T03:09:40;23.15;;;10.20;;
67762;SDS011;54566;52.022;5.582;2023-11-21T03:12:06;21.52;;;10.38;;
67762;SDS011;54566;52.022;5.582;2023-11-21T03:14:32;23.60;;;10.88;;
67762;SDS011;54566;52.022;5.582;2023-11-21T03:16:58;22.55;;;11.00;;
67762;SDS011;54566;52.022;5.582;2023-11-21T03:19:24;28.60;;;11.68;;
67762;SDS011;54566;52.022;5.582;2023-11-21T03:21:50;28.45;;;12.25;;
67762;SDS011;54566;52.022;5.582;2023-11-21T03:24:18;25.83;;;10.18;;
67762;SDS011;54566;52.022;5.582;2023-11-21T03:26:45;28.52;;;11.25;;
67762;SDS011;54566;52.022;5.582;2023-11-21T03:29:11;29.33;;;11.45;;
67762;SDS011;54566;52.022;5.582;2023-11-21T03:31:38;30.25;;;11.88;;
67762;SDS011;54566;52.022;5.582;2023-11-21T03:34:04;28.55;;;12.05;;
67762;SDS011;54566;52.022;5.582;2023-11-21T03:36:31;30.17;;;12.35;;
67762;SDS011;54566;52.022;5.582;2023-11-21T03:38:57;34.35;;;13.23;;
67762;SDS011;54566;52.022;5.582;2023-11-21T03:41:24;28.83;;;12.63;;
67762;SDS011;54566;52.022;5.582;2023-11-21T03:43:51;27.73;;;10.70;;
67762;SDS011;54566;52.022;5.582;2023-11-21T03:46:17;23.73;;;10.52;;
67762;SDS011;54566;52.022;5.582;2023-11-21T03:48:43;22.45;;;10.25;;
67762;SDS011;54566;52.022;5.582;2023-11-21T03:51:09;22.30;;;10.88;;
67762;SDS011;54566;52.022;5.582;2023-11-21T03:53:35;25.40;;;10.57;;
67762;SDS011;54566;52.022;5.582;2023-11-21T03:56:02;22.67;;;10.15;;
67762;SDS011;54566;52.022;5.582;2023-11-21T03:58:29;20.80;;;10.15;;
67762;SDS011;54566;52.022;5.582;2023-11-21T04:00:55;21.63;;;10.27;;
67762;SDS011;54566;52.022;5.582;2023-11-21T04:03:21;22.17;;;9.88;;
67762;SDS011;54566;52.022;5.582;2023-11-21T04:05:47;27.50;;;11.23;;
67762;SDS011;54566;52.022;5.582;2023-11-21T04:08:14;26.83;;;11.32;;
67762;SDS011;54566;52.022;5.582;2023-11-21T04:10:40;26.25;;;11.27;;
67762;SDS011;54566;52.022;5.582;2023-11-21T04:13:07;31.00;;;13.10;;
67762;SDS011;54566;52.022;5.582;2023-11-21T04:15:33;37.28;;;12.88;;
67762;SDS011;54566;52.022;5.582;2023-11-21T04:17:59;35.50;;;13.40;;
67762;SDS011;54566;52.022;5.582;2023-11-21T04:20:26;31.58;;;12.50;;
67762;SDS011;54566;52.022;5.582;2023-11-21T04:22:52;36.92;;;13.45;;
67762;SDS011;54566;52.022;5.582;2023-11-21T04:25:18;32.78;;;12.77;;
67762;SDS011;54566;52.022;5.582;2023-11-21T04:27:45;36.28;;;12.98;;
67762;SDS011;54566;52.022;5.582;2023-11-21T04:30:11;42.72;;;14.10;;
67762;SDS011;54566;52.022;5.582;2023-11-21T04:32:38;35.42;;;12.38;;
67762;SDS011;54566;52.022;5.582;2023-11-21T04:35:04;34.08;;;13.57;;
67762;SDS011;54566;52.022;5.582;2023-11-21T04:37:30;34.25;;;14.13;;
67762;SDS011;54566;52.022;5.582;2023-11-21T04:39:56;36.15;;;13.35;;
67762;SDS011;54566;52.022;5.582;2023-11-21T04:42:22;36.97;;;13.35;;
67762;SDS011;54566;52.022;5.582;2023-11-21T04:44:49;37.60;;;14.55;;
67762;SDS011;54566;52.022;5.582;2023-11-21T04:47:15;33.05;;;13.23;;
67762;SDS011;54566;52.022;5.582;2023-11-21T04:49:45;35.85;;;14.80;;
67762;SDS011;54566;52.022;5.582;2023-11-21T04:52:18;43.05;;;13.98;;
67762;SDS011;54566;52.022;5.582;2023-11-21T04:54:53;33.08;;;13.18;;
67762;SDS011;54566;52.022;5.582;2023-11-21T04:57:22;38.03;;;13.57;;
67762;SDS011;54566;52.022;5.582;2023-11-21T04:59:49;33.17;;;14.30;;
67762;SDS011;54566;52.022;5.582;2023-11-21T05:02:16;40.08;;;14.45;;
67762;SDS011;54566;52.022;5.582;2023-11-21T05:04:44;37.30;;;14.50;;
67762;SDS011;54566;52.022;5.582;2023-11-21T05:07:10;33.92;;;13.52;;
67762;SDS011;54566;52.022;5.582;2023-11-21T05:09:40;38.00;;;14.23;;
67762;SDS011;54566;52.022;5.582;2023-11-21T05:12:06;36.15;;;13.05;;
67762;SDS011;54566;52.022;5.582;2023-11-21T05:14:32;30.98;;;13.13;;
67762;SDS011;54566;52.022;5.582;2023-11-21T05:16:58;33.72;;;13.68;;
67762;SDS011;54566;52.022;5.582;2023-11-21T05:19:24;34.33;;;12.80;;
67762;SDS011;54566;52.022;5.582;2023-11-21T05:21:52;38.55;;;14.43;;
67762;SDS011;54566;52.022;5.582;2023-11-21T05:24:18;40.85;;;14.40;;
67762;SDS011;54566;52.022;5.582;2023-11-21T05:26:44;33.67;;;13.57;;
67762;SDS011;54566;52.022;5.582;2023-11-21T05:29:10;39.38;;;14.18;;
67762;SDS011;54566;52.022;5.582;2023-11-21T05:31:36;38.60;;;13.45;;
67762;SDS011;54566;52.022;5.582;2023-11-21T05:34:03;35.42;;;12.43;;
67762;SDS011;54566;52.022;5.582;2023-11-21T05:36:30;39.00;;;13.50;;
67762;SDS011;54566;52.022;5.582;2023-11-21T05:38:56;45.33;;;13.43;;
67762;SDS011;54566;52.022;5.582;2023-11-21T05:41:22;55.50;;;13.85;;
67762;SDS011;54566;52.022;5.582;2023-11-21T05:43:48;31.20;;;12.63;;
67762;SDS011;54566;52.022;5.582;2023-11-21T05:46:19;37.17;;;12.88;;
67762;SDS011;54566;52.022;5.582;2023-11-21T05:51:56;42.00;;;13.55;;
67762;SDS011;54566;52.022;5.582;2023-11-21T06:07:16;38.05;;;12.70;;
67762;SDS011;54566;52.022;5.582;2023-11-21T06:41:05;57.25;;;14.60;;
67762;SDS011;54566;52.022;5.582;2023-11-21T06:43:52;43.72;;;14.10;;
67762;SDS011;54566;52.022;5.582;2023-11-21T06:52:43;45.72;;;14.23;;
67762;SDS011;54566;52.022;5.582;2023-11-21T06:55:30;51.92;;;14.27;;
67762;SDS011;54566;52.022;5.582;2023-11-21T06:58:06;54.05;;;16.33;;
67762;SDS011;54566;52.022;5.582;2023-11-21T07:00:50;42.30;;;15.18;;
67762;SDS011;54566;52.022;5.582;2023-11-21T07:03:17;52.85;;;15.15;;
67762;SDS011;54566;52.022;5.582;2023-11-21T07:08:57;45.30;;;14.63;;
67762;SDS011;54566;52.022;5.582;2023-11-21T07:11:31;44.65;;;15.45;;
67762;SDS011;54566;52.022;5.582;2023-11-21T07:13:57;47.53;;;15.45;;
67762;SDS011;54566;52.022;5.582;2023-11-21T07:16:23;43.83;;;16.00;;
67762;SDS011;54566;52.022;5.582;2023-11-21T07:19:02;43.95;;;15.05;;
67762;SDS011;54566;52.022;5.582;2023-11-21T07:24:00;53.47;;;14.68;;
67762;SDS011;54566;52.022;5.582;2023-11-21T07:26:30;47.08;;;14.57;;
67762;SDS011;54566;52.022;5.582;2023-11-21T07:28:56;43.35;;;14.35;;
67762;SDS011;54566;52.022;5.582;2023-11-21T07:31:22;51.78;;;16.17;;
67762;SDS011;54566;52.022;5.582;2023-11-21T07:33:49;47.83;;;16.63;;
67762;SDS011;54566;52.022;5.582;2023-11-21T07:36:15;54.15;;;16.73;;
67762;SDS011;54566;52.022;5.582;2023-11-21T07:38:43;47.60;;;15.25;;
67762;SDS011;54566;52.022;5.582;2023-11-21T07:41:10;56.30;;;16.70;;
67762;SDS011;54566;52.022;5.582;2023-11-21T07:43:36;45.40;;;15.63;;
67762;SDS011;54566;52.022;5.582;2023-11-21T07:46:02;52.08;;;15.43;;
67762;SDS011;54566;52.022;5.582;2023-11-21T07:48:32;38.95;;;16.08;;
67762;SDS011;54566;52.022;5.582;2023-11-21T07:50:58;49.22;;;16.65;;
67762;SDS011;54566;52.022;5.582;2023-11-21T07:53:24;63.47;;;20.52;;
67762;SDS011;54566;52.022;5.582;2023-11-21T07:55:50;43.05;;;15.73;;
67762;SDS011;54566;52.022;5.582;2023-11-21T07:58:17;61.50;;;21.00;;
67762;SDS011;54566;52.022;5.582;2023-11-21T08:00:43;47.33;;;17.98;;
67762;SDS011;54566;52.022;5.582;2023-11-21T08:03:09;60.33;;;21.20;;
67762;SDS011;54566;52.022;5.582;2023-11-21T08:05:36;60.08;;;22.02;;
67762;SDS011;54566;52.022;5.582;2023-11-21T08:08:02;41.58;;;14.52;;
67762;SDS011;54566;52.022;5.582;2023-11-21T08:10:28;38.63;;;14.52;;
67762;SDS011;54566;52.022;5.582;2023-11-21T08:12:55;49.25;;;14.88;;
67762;SDS011;54566;52.022;5.582;2023-11-21T08:15:21;40.42;;;14.68;;
67762;SDS011;54566;52.022;5.582;2023-11-21T08:17:47;41.22;;;13.60;;
67762;SDS011;54566;52.022;5.582;2023-11-21T08:20:13;43.45;;;14.23;;
67762;SDS011;54566;52.022;5.582;2023-11-21T08:22:43;47.00;;;13.60;;
67762;SDS011;54566;52.022;5.582;2023-11-21T08:25:09;45.47;;;14.48;;
67762;SDS011;54566;52.022;5.582;2023-11-21T08:27:36;50.42;;;14.35;;
67762;SDS011;54566;52.022;5.582;2023-11-21T08:30:02;38.17;;;13.90;;
67762;SDS011;54566;52.022;5.582;2023-11-21T08:32:29;35.58;;;13.32;;
67762;SDS011;54566;52.022;5.582;2023-11-21T08:35:01;40.38;;;13.13;;
67762;SDS011;54566;52.022;5.582;2023-11-21T08:37:27;38.28;;;14.60;;
67762;SDS011;54566;52.022;5.582;2023-11-21T08:39:55;43.53;;;14.17;;
67762;SDS011;54566;52.022;5.582;2023-11-21T08:42:24;41.15;;;13.88;;
67762;SDS011;54566;52.022;5.582;2023-11-21T08:44:54;42.67;;;13.85;;
67762;SDS011;54566;52.022;5.582;2023-11-21T08:47:22;43.60;;;14.40;;
67762;SDS011;54566;52.022;5.582;2023-11-21T08:49:49;36.65;;;13.18;;
67762;SDS011;54566;52.022;5.582;2023-11-21T08:52:18;41.42;;;14.45;;
67762;SDS011;54566;52.022;5.582;2023-11-21T08:54:45;46.72;;;15.60;;
67762;SDS011;54566;52.022;5.582;2023-11-21T08:57:12;47.90;;;14.43;;
67762;SDS011;54566;52.022;5.582;2023-11-21T08:59:38;45.25;;;13.65;;
67762;SDS011;54566;52.022;5.582;2023-11-21T09:02:04;30.83;;;12.50;;
67762;SDS011;54566;52.022;5.582;2023-11-21T09:04:33;38.53;;;12.63;;
67762;SDS011;54566;52.022;5.582;2023-11-21T09:06:59;35.97;;;12.18;;
67762;SDS011;54566;52.022;5.582;2023-11-21T09:09:25;30.70;;;12.10;;
67762;SDS011;54566;52.022;5.582;2023-11-21T09:11:52;35.45;;;11.98;;
67762;SDS011;54566;52.022;5.582;2023-11-21T09:14:18;31.20;;;12.02;;
67762;SDS011;54566;52.022;5.582;2023-11-21T09:16:44;29.98;;;12.25;;
67762;SDS011;54566;52.022;5.582;2023-11-21T09:19:10;33.85;;;13.23;;
67762;SDS011;54566;52.022;5.582;2023-11-21T09:21:39;28.83;;;12.00;;
67762;SDS011;54566;52.022;5.582;2023-11-21T09:24:05;32.70;;;12.95;;
67762;SDS011;54566;52.022;5.582;2023-11-21T09:26:31;30.38;;;12.32;;
67762;SDS011;54566;52.022;5.582;2023-11-21T09:28:57;33.60;;;12.98;;
67762;SDS011;54566;52.022;5.582;2023-11-21T09:31:23;34.83;;;12.80;;
67762;SDS011;54566;52.022;5.582;2023-11-21T09:33:49;30.95;;;13.85;;
67762;SDS011;54566;52.022;5.582;2023-11-21T09:36:15;31.73;;;13.57;;
67762;SDS011;54566;52.022;5.582;2023-11-21T09:38:41;35.28;;;13.55;;
67762;SDS011;54566;52.022;5.582;2023-11-21T09:41:11;31.10;;;14.10;;
67762;SDS011;54566;52.022;5.582;2023-11-21T09:43:42;34.25;;;13.85;;
67762;SDS011;54566;52.022;5.582;2023-11-21T09:46:10;29.15;;;13.05;;
67762;SDS011;54566;52.022;5.582;2023-11-21T09:48:38;25.13;;;12.30;;
67762;SDS011;54566;52.022;5.582;2023-11-21T09:51:05;32.88;;;13.27;;
67762;SDS011;54566;52.022;5.582;2023-11-21T09:53:31;34.60;;;13.88;;
67762;SDS011;54566;52.022;5.582;2023-11-21T09:55:59;32.30;;;13.80;;
67762;SDS011;54566;52.022;5.582;2023-11-21T09:58:27;28.73;;;13.27;;
67762;SDS011;54566;52.022;5.582;2023-11-21T10:00:53;26.50;;;12.52;;
67762;SDS011;54566;52.022;5.582;2023-11-21T10:03:19;32.97;;;13.40;;
67762;SDS011;54566;52.022;5.582;2023-11-21T10:05:46;28.05;;;13.02;;
67762;SDS011;54566;52.022;5.582;2023-11-21T10:08:15;31.65;;;13.68;;
67762;SDS011;54566;52.022;5.582;2023-11-21T10:10:44;25.92;;;12.75;;
67762;SDS011;54566;52.022;5.582;2023-11-21T10:13:11;29.58;;;13.23;;
67762;SDS011;54566;52.022;5.582;2023-11-21T10:15:41;27.50;;;13.15;;
67762;SDS011;54566;52.022;5.582;2023-11-21T10:20:35;24.73;;;11.82;;
67762;SDS011;54566;52.022;5.582;2023-11-21T10:23:03;27.08;;;12.32;;
67762;SDS011;54566;52.022;5.582;2023-11-21T10:25:30;22.42;;;13.00;;
67762;SDS011;54566;52.022;5.582;2023-11-21T10:27:59;22.05;;;11.65;;
67762;SDS011;54566;52.022;5.582;2023-11-21T10:30:35;25.00;;;12.52;;
67762;SDS011;54566;52.022;5.582;2023-11-21T10:33:05;22.98;;;11.32;;
67762;SDS011;54566;52.022;5.582;2023-11-21T10:35:47;23.50;;;11.88;;
67762;SDS011;54566;52.022;5.582;2023-11-21T10:38:19;21.55;;;11.98;;
67762;SDS011;54566;52.022;5.582;2023-11-21T10:40:51;23.88;;;12.65;;
67762;SDS011;54566;52.022;5.582;2023-11-21T10:43:17;23.58;;;12.68;;
67762;SDS011;54566;52.022;5.582;2023-11-21T10:45:43;24.00;;;13.27;;
67762;SDS011;54566;52.022;5.582;2023-11-21T10:48:10;23.88;;;12.82;;
67762;SDS011;54566;52.022;5.582;2023-11-21T10:50:36;25.50;;;12.95;;
67762;SDS011;54566;52.022;5.582;2023-11-21T10:53:03;27.10;;;13.48;;
67762;SDS011;54566;52.022;5.582;2023-11-21T10:55:29;24.00;;;12.40;;
67762;SDS011;54566;52.022;5.582;2023-11-21T10:57:58;23.58;;;12.50;;
67762;SDS011;54566;52.022;5.582;2023-11-21T11:00:26;20.42;;;11.35;;
67762;SDS011;54566;52.022;5.582;2023-11-21T11:02:53;22.10;;;10.80;;
67762;SDS011;54566;52.022;5.582;2023-11-21T11:05:20;19.38;;;10.70;;
67762;SDS011;54566;52.022;5.582;2023-11-21T11:07:50;21.50;;;9.55;;
67762;SDS011;54566;52.022;5.582;2023-11-21T11:10:24;18.92;;;10.45;;
67762;SDS011;54566;52.022;5.582;2023-11-21T11:12:53;19.42;;;9.70;;
67762;SDS011;54566;52.022;5.582;2023-11-21T11:15:20;20.17;;;9.68;;
67762;SDS011;54566;52.022;5.582;2023-11-21T11:17:47;26.25;;;10.73;;
67762;SDS011;54566;52.022;5.582;2023-11-21T11:20:14;20.15;;;9.80;;
67762;SDS011;54566;52.022;5.582;2023-11-21T11:22:44;17.80;;;9.80;;
67762;SDS011;54566;52.022;5.582;2023-11-21T11:28:14;21.77;;;9.68;;
67762;SDS011;54566;52.022;5.582;2023-11-21T11:36:01;20.00;;;9.43;;
67762;SDS011;54566;52.022;5.582;2023-11-21T11:38:31;20.33;;;9.27;;
67762;SDS011;54566;52.022;5.582;2023-11-21T11:41:04;21.20;;;9.05;;
67762;SDS011;54566;52.022;5.582;2023-11-21T11:43:31;18.08;;;8.68;;
67762;SDS011;54566;52.022;5.582;2023-11-21T11:46:10;18.58;;;8.30;;
67762;SDS011;54566;52.022;5.582;2023-11-21T11:48:40;18.55;;;8.20;;
67762;SDS011;54566;52.022;5.582;2023-11-21T11:51:10;14.18;;;7.82;;
67762;SDS011;54566;52.022;5.582;2023-11-21T11:53:39;15.55;;;7.30;;
67762;SDS011;54566;52.022;5.582;2023-11-21T11:56:26;13.73;;;7.78;;
67762;SDS011;54566;52.022;5.582;2023-11-21T11:58:59;17.73;;;8.05;;
67762;SDS011;54566;52.022;5.582;2023-11-21T12:01:27;17.50;;;7.95;;
67762;SDS011;54566;52.022;5.582;2023-11-21T12:06:39;15.98;;;7.60;;
67762;SDS011;54566;52.022;5.582;2023-11-21T12:09:06;13.32;;;6.97;;
67762;SDS011;54566;52.022;5.582;2023-11-21T12:11:32;14.90;;;7.20;;
67762;SDS011;54566;52.022;5.582;2023-11-21T12:14:00;13.17;;;6.90;;
67762;SDS011;54566;52.022;5.582;2023-11-21T12:16:28;16.48;;;7.65;;
67762;SDS011;54566;52.022;5.582;2023-11-21T12:18:54;15.73;;;7.72;;
67762;SDS011;54566;52.022;5.582;2023-11-21T12:21:20;14.23;;;7.80;;
67762;SDS011;54566;52.022;5.582;2023-11-21T12:23:46;16.65;;;7.72;;
67762;SDS011;54566;52.022;5.582;2023-11-21T12:26:12;16.25;;;8.00;;
67762;SDS011;54566;52.022;5.582;2023-11-21T12:28:40;16.20;;;7.85;;
67762;SDS011;54566;52.022;5.582;2023-11-21T12:31:06;17.20;;;7.88;;
67762;SDS011;54566;52.022;5.582;2023-11-21T12:33:35;15.70;;;7.45;;
67762;SDS011;54566;52.022;5.582;2023-11-21T12:36:01;17.60;;;7.57;;
67762;SDS011;54566;52.022;5.582;2023-11-21T12:38:34;14.82;;;7.82;;
67762;SDS011;54566;52.022;5.582;2023-11-21T12:41:03;18.50;;;8.02;;
67762;SDS011;54566;52.022;5.582;2023-11-21T12:43:29;16.30;;;8.63;;
67762;SDS011;54566;52.022;5.582;2023-11-21T12:46:07;13.82;;;7.45;;
67762;SDS011;54566;52.022;5.582;2023-11-21T12:48:38;15.95;;;7.72;;
67762;SDS011;54566;52.022;5.582;2023-11-21T12:51:10;14.15;;;7.38;;
67762;SDS011;54566;52.022;5.582;2023-11-21T12:53:40;16.50;;;8.15;;
67762;SDS011;54566;52.022;5.582;2023-11-21T12:59:02;12.55;;;7.25;;
67762;SDS011;54566;52.022;5.582;2023-11-21T13:04:31;17.85;;;9.88;;
67762;SDS011;54566;52.022;5.582;2023-11-21T13:07:05;18.25;;;9.13;;
67762;SDS011;54566;52.022;5.582;2023-11-21T13:09:39;19.67;;;9.98;;
67762;SDS011;54566;52.022;5.582;2023-11-21T13:15:05;20.92;;;10.02;;
67762;SDS011;54566;52.022;5.582;2023-11-21T13:17:32;16.55;;;9.75;;
67762;SDS011;54566;52.022;5.582;2023-11-21T13:23:09;20.13;;;9.82;;
67762;SDS011;54566;52.022;5.582;2023-11-21T13:25:59;18.40;;;10.25;;
67762;SDS011;54566;52.022;5.582;2023-11-21T13:28:29;18.27;;;9.43;;
67762;SDS011;54566;52.022;5.582;2023-11-21T13:30:58;16.88;;;9.23;;
67762;SDS011;54566;52.022;5.582;2023-11-21T13:33:43;19.63;;;9.95;;
67762;SDS011;54566;52.022;5.582;2023-11-21T13:36:15;19.92;;;9.70;;
67762;SDS011;54566;52.022;5.582;2023-11-21T13:38:47;19.77;;;10.30;;
67762;SDS011;54566;52.022;5.582;2023-11-21T13:41:13;19.50;;;9.65;;
67762;SDS011;54566;52.022;5.582;2023-11-21T13:43:40;18.15;;;10.43;;
67762;SDS011;54566;52.022;5.582;2023-11-21T13:46:09;20.58;;;10.00;;
67762;SDS011;54566;52.022;5.582;2023-11-21T13:48:42;17.27;;;9.60;;
67762;SDS011;54566;52.022;5.582;2023-11-21T13:51:16;18.33;;;10.80;;
67762;SDS011;54566;52.022;5.582;2023-11-21T13:56:30;14.95;;;8.85;;
67762;SDS011;54566;52.022;5.582;2023-11-21T13:58:57;14.73;;;8.50;;
67762;SDS011;54566;52.022;5.582;2023-11-21T14:01:29;14.75;;;8.35;;
67762;SDS011;54566;52.022;5.582;2023-11-21T14:04:01;14.85;;;8.70;;
67762;SDS011;54566;52.022;5.582;2023-11-21T14:06:46;17.17;;;8.35;;
67762;SDS011;54566;52.022;5.582;2023-11-21T14:12:08;11.02;;;5.90;;
67762;SDS011;54566;52.022;5.582;2023-11-21T14:14:35;12.23;;;6.45;;
67762;SDS011;54566;52.022;5.582;2023-11-21T14:17:07;10.48;;;5.72;;
67762;SDS011;54566;52.022;5.582;2023-11-21T14:19:35;10.80;;;5.88;;
67762;SDS011;54566;52.022;5.582;2023-11-21T14:22:05;12.63;;;5.85;;
67762;SDS011;54566;52.022;5.582;2023-11-21T14:24:34;16.65;;;6.43;;
67762;SDS011;54566;52.022;5.582;2023-11-21T14:27:01;13.55;;;6.82;;
67762;SDS011;54566;52.022;5.582;2023-11-21T14:32:17;17.00;;;7.35;;
67762;SDS011;54566;52.022;5.582;2023-11-21T14:38:04;19.63;;;8.85;;
67762;SDS011;54566;52.022;5.582;2023-11-21T14:40:30;18.77;;;8.88;;
67762;SDS011;54566;52.022;5.582;2023-11-21T14:43:01;20.05;;;9.35;;
67762;SDS011;54566;52.022;5.582;2023-11-21T14:45:30;22.20;;;9.82;;
67762;SDS011;54566;52.022;5.582;2023-11-21T14:47:56;23.35;;;11.07;;
67762;SDS011;54566;52.022;5.582;2023-11-21T14:50:48;27.27;;;11.68;;
67762;SDS011;54566;52.022;5.582;2023-11-21T14:53:34;21.85;;;10.85;;
67762;SDS011;54566;52.022;5.582;2023-11-21T14:56:07;25.80;;;12.15;;
67762;SDS011;54566;52.022;5.582;2023-11-21T14:58:34;24.77;;;11.27;;
67762;SDS011;54566;52.022;5.582;2023-11-21T15:01:20;28.63;;;12.30;;
67762;SDS011;54566;52.022;5.582;2023-11-21T15:04:03;29.75;;;12.52;;
67762;SDS011;54566;52.022;5.582;2023-11-21T15:06:31;25.80;;;12.05;;
67762;SDS011;54566;52.022;5.582;2023-11-21T15:08:58;24.38;;;12.02;;
67762;SDS011;54566;52.022;5.582;2023-11-21T15:11:36;25.42;;;12.90;;
67762;SDS011;54566;52.022;5.582;2023-11-21T15:14:03;23.67;;;12.10;;
67762;SDS011;54566;52.022;5.582;2023-11-21T15:16:35;28.63;;;13.30;;
67762;SDS011;54566;52.022;5.582;2023-11-21T15:19:07;25.10;;;13.45;;
67762;SDS011;54566;52.022;5.582;2023-11-21T15:21:34;28.02;;;12.77;;
67762;SDS011;54566;52.022;5.582;2023-11-21T15:24:00;25.60;;;12.30;;
67762;SDS011;54566;52.022;5.582;2023-11-21T15:26:27;14.13;;;9.38;;
67762;SDS011;54566;52.022;5.582;2023-11-21T15:28:53;22.77;;;10.95;;
67762;SDS011;54566;52.022;5.582;2023-11-21T15:31:19;19.20;;;11.05;;
67762;SDS011;54566;52.022;5.582;2023-11-21T15:33:50;14.10;;;9.80;;
67762;SDS011;54566;52.022;5.582;2023-11-21T15:36:17;16.75;;;10.05;;
67762;SDS011;54566;52.022;5.582;2023-11-21T15:38:44;17.77;;;9.00;;
67762;SDS011;54566;52.022;5.582;2023-11-21T15:41:10;17.30;;;9.48;;
67762;SDS011;54566;52.022;5.582;2023-11-21T15:43:36;14.52;;;8.98;;
67762;SDS011;54566;52.022;5.582;2023-11-21T15:46:03;15.70;;;9.43;;
67762;SDS011;54566;52.022;5.582;2023-11-21T15:48:37;13.50;;;9.38;;
67762;SDS011;54566;52.022;5.582;2023-11-21T15:51:08;15.15;;;9.07;;
67762;SDS011;54566;52.022;5.582;2023-11-21T15:53:37;18.27;;;9.68;;
67762;SDS011;54566;52.022;5.582;2023-11-21T15:56:04;13.32;;;8.68;;
67762;SDS011;54566;52.022;5.582;2023-11-21T15:58:30;12.82;;;7.80;;
67762;SDS011;54566;52.022;5.582;2023-11-21T16:01:02;12.65;;;8.38;;
67762;SDS011;54566;52.022;5.582;2023-11-21T16:03:34;11.93;;;8.15;;
67762;SDS011;54566;52.022;5.582;2023-11-21T16:06:00;14.10;;;8.00;;
67762;SDS011;54566;52.022;5.582;2023-11-21T16:08:31;15.63;;;8.32;;
67762;SDS011;54566;52.022;5.582;2023-11-21T16:11:03;15.27;;;8.70;;
67762;SDS011;54566;52.022;5.582;2023-11-21T16:13:38;12.45;;;8.48;;